In Rescue
 
Open Full Screen Window  High Contrast Mode
Wind Gusting 17 knots
11
May 13, 2021 10:43 AM CDT
Weather Information
Wind Direction
  190 °
Wind Speed
  11 kt (13 mph)
Wind Gust
  17 kt (20 mph)
Altimeter
30.30 in
Visibility
10 SM
Temperature
18° C
64° F
Dewpoint
-06° C
21° F
Humidity
19%
1hr Rain Fall
00.00 in.
24hr Rain Fall
00.00 in.
Sky Condition
Clear
VFR

METAR KLXL 131543Z AUTO 19011G17KT 10SM CLR 18/M06 A3030 RMK AO2

FAA Disclaimer: The data displayed is for advisory purposes only and is not to be used for flight planning or operations.